Time;durP1;ratioP1;P1;durP2;ratioP2;P2;SDS_P1;SDS_P2;PMS_P1;PMS_P2;Temp;Humidity;BMP_temperature;BMP_pressure;BME280_temperature;BME280_humidity;BME280_pressure;Samples;Min_cycle;Max_cycle;Signal;HPM_P1;HPM_P2
2021/11/25 00:01:06;;;;;;;78.93;36.43;;;;;;;;;;5021481;28;20185;-76
2021/11/25 00:03:32;;;;;;;84.87;38.20;;;;;;;;;;5017767;28;20260;-75
2021/11/25 00:05:57;;;;;;;76.03;37.30;;;;;;;;;;5019393;28;20190;-75
2021/11/25 00:08:22;;;;;;;84.07;36.57;;;;;;;;;;5020871;28;20200;-74
2021/11/25 00:10:48;;;;;;;78.47;35.37;;;;;;;;;;5025537;28;20173;-75
2021/11/25 00:13:14;;;;;;;79.10;34.73;;;;;;;;;;5032439;28;20264;-75
2021/11/25 00:15:39;;;;;;;82.30;36.90;;;;;;;;;;5033912;28;20185;-75
2021/11/25 00:18:05;;;;;;;79.93;35.70;;;;;;;;;;5035109;28;20197;-75
2021/11/25 00:20:30;;;;;;;79.60;36.07;;;;;;;;;;5015611;28;20687;-79
2021/11/25 00:22:55;;;;;;;79.73;36.13;;;;;;;;;;5017675;28;20206;-75
2021/11/25 00:25:21;;;;;;;76.37;35.63;;;;;;;;;;5015426;28;20186;-77
2021/11/25 00:27:47;;;;;;;77.53;33.47;;;;;;;;;;5019318;28;20174;-76
2021/11/25 00:30:12;;;;;;;72.00;34.60;;;;;;;;;;5025151;28;20673;-76
2021/11/25 00:32:38;;;;;;;74.03;33.50;;;;;;;;;;5030385;28;20691;-75
2021/11/25 00:35:04;;;;;;;82.47;36.07;;;;;;;;;;5038036;28;20185;-77
2021/11/25 00:37:30;;;;;;;77.83;34.30;;;;;;;;;;5035211;28;20255;-76
2021/11/25 00:39:55;;;;;;;66.50;33.47;;;;;;;;;;5035324;28;20664;-75
2021/11/25 00:42:20;;;;;;;76.10;35.00;;;;;;;;;;5032265;28;20202;-76
2021/11/25 00:44:46;;;;;;;76.23;33.07;;;;;;;;;;5044804;28;20182;-75
2021/11/25 00:47:11;;;;;;;78.30;33.77;;;;;;;;;;5036978;28;20186;-76
2021/11/25 00:49:36;;;;;;;71.17;34.00;;;;;;;;;;5035726;28;20180;-77
2021/11/25 00:52:01;;;;;;;70.80;32.53;;;;;;;;;;5014400;28;20710;-75
2021/11/25 00:54:26;;;;;;;73.20;34.27;;;;;;;;;;5016557;28;20201;-76
2021/11/25 00:56:52;;;;;;;69.37;32.20;;;;;;;;;;5011142;28;20190;-78
2021/11/25 00:59:17;;;;;;;71.87;33.73;;;;;;;;;;5012232;28;20277;-77
2021/11/25 01:01:43;;;;;;;69.77;32.50;;;;;;;;;;5010816;28;20206;-75
2021/11/25 01:04:08;;;;;;;65.63;33.87;;;;;;;;;;5014252;28;20202;-77
2021/11/25 01:06:33;;;;;;;67.83;35.03;;;;;;;;;;5014594;28;20636;-78
2021/11/25 01:08:58;;;;;;;62.00;32.23;;;;;;;;;;5019346;28;20261;-76
2021/11/25 01:11:25;;;;;;;65.93;32.77;;;;;;;;;;5024620;28;20205;-78
2021/11/25 01:13:51;;;;;;;64.30;34.53;;;;;;;;;;5026048;28;20759;-77
2021/11/25 01:16:16;;;;;;;68.90;33.13;;;;;;;;;;5018354;28;20185;-78
2021/11/25 01:18:41;;;;;;;65.93;32.57;;;;;;;;;;5015444;28;20660;-75
2021/11/25 01:21:06;;;;;;;62.03;30.80;;;;;;;;;;5015461;28;20178;-82
2021/11/25 01:23:32;;;;;;;63.60;31.43;;;;;;;;;;5013485;28;20723;-76
2021/11/25 01:25:57;;;;;;;70.90;33.27;;;;;;;;;;5013597;28;20182;-79
2021/11/25 01:28:23;;;;;;;67.47;33.30;;;;;;;;;;5014228;28;20543;-76
2021/11/25 01:30:51;;;;;;;64.20;31.73;;;;;;;;;;5013509;28;20376;-76
2021/11/25 01:33:16;;;;;;;63.00;31.70;;;;;;;;;;5025555;28;20215;-75
2021/11/25 01:35:42;;;;;;;57.87;32.60;;;;;;;;;;5019428;28;20560;-80
2021/11/25 01:38:08;;;;;;;61.60;32.03;;;;;;;;;;5018899;28;20285;-75
2021/11/25 01:40:33;;;;;;;58.00;30.97;;;;;;;;;;5014845;28;20186;-78
2021/11/25 01:42:58;;;;;;;63.10;32.20;;;;;;;;;;5017865;28;20205;-77
2021/11/25 01:45:25;;;;;;;58.13;32.10;;;;;;;;;;5017365;28;20261;-76
2021/11/25 01:47:51;;;;;;;56.17;30.30;;;;;;;;;;5014899;28;20273;-76
2021/11/25 01:50:17;;;;;;;58.73;29.97;;;;;;;;;;5016681;28;20179;-78
2021/11/25 01:52:42;;;;;;;56.13;31.30;;;;;;;;;;5014568;28;20292;-76
2021/11/25 01:55:08;;;;;;;52.00;30.20;;;;;;;;;;5014825;28;20788;-80
2021/11/25 01:57:33;;;;;;;55.90;28.70;;;;;;;;;;5015990;28;21419;-76
2021/11/25 01:59:59;;;;;;;52.70;29.90;;;;;;;;;;5014555;28;20182;-76
2021/11/25 02:02:24;;;;;;;54.93;30.63;;;;;;;;;;5016891;28;21045;-75
2021/11/25 02:04:49;;;;;;;55.77;30.83;;;;;;;;;;5014509;28;20178;-77
2021/11/25 02:07:14;;;;;;;53.50;29.83;;;;;;;;;;5015862;28;20181;-80
2021/11/25 02:09:40;;;;;;;48.30;29.30;;;;;;;;;;5014042;28;20606;-79
2021/11/25 02:12:05;;;;;;;52.80;29.63;;;;;;;;;;5020341;28;20636;-76
2021/11/25 02:14:30;;;;;;;49.67;29.33;;;;;;;;;;5018506;28;20217;-79
2021/11/25 02:16:55;;;;;;;49.97;29.40;;;;;;;;;;5018529;28;20194;-75
2021/11/25 02:19:22;;;;;;;51.20;29.77;;;;;;;;;;5013939;28;20218;-79
2021/11/25 02:21:47;;;;;;;52.67;29.80;;;;;;;;;;5014286;28;20578;-76
2021/11/25 02:24:12;;;;;;;52.20;30.87;;;;;;;;;;5014701;28;20205;-74
2021/11/25 02:26:37;;;;;;;49.67;29.03;;;;;;;;;;5012890;28;20723;-76
2021/11/25 02:29:03;;;;;;;48.60;29.37;;;;;;;;;;5013254;28;20643;-79
2021/11/25 02:31:28;;;;;;;54.33;29.17;;;;;;;;;;5016380;28;20648;-80
2021/11/25 02:33:54;;;;;;;58.03;30.13;;;;;;;;;;5014458;28;20263;-75
2021/11/25 02:36:19;;;;;;;53.30;29.80;;;;;;;;;;5013433;28;20644;-75
2021/11/25 02:38:44;;;;;;;51.37;28.57;;;;;;;;;;5015072;28;20483;-75
2021/11/25 02:41:10;;;;;;;49.43;29.27;;;;;;;;;;5013146;28;20193;-76
2021/11/25 02:43:35;;;;;;;52.07;28.07;;;;;;;;;;5010590;28;20222;-75
2021/11/25 02:46:05;;;;;;;51.17;30.10;;;;;;;;;;5013900;28;20269;-77
2021/11/25 02:48:31;;;;;;;44.57;26.77;;;;;;;;;;5028543;28;20190;-78
2021/11/25 02:50:58;;;;;;;49.13;28.70;;;;;;;;;;5016817;28;20736;-77
2021/11/25 02:53:24;;;;;;;44.97;28.87;;;;;;;;;;5013153;28;20570;-75
2021/11/25 02:55:50;;;;;;;48.13;28.17;;;;;;;;;;5015110;28;20250;-75
2021/11/25 02:58:15;;;;;;;47.07;28.40;;;;;;;;;;5016356;28;20724;-79
2021/11/25 03:00:43;;;;;;;48.33;28.67;;;;;;;;;;5015062;28;20187;-76
2021/11/25 03:03:10;;;;;;;50.10;29.77;;;;;;;;;;5014280;28;20216;-75
2021/11/25 03:05:36;;;;;;;44.07;26.00;;;;;;;;;;5013666;28;20197;-75
2021/11/25 03:08:03;;;;;;;45.03;26.53;;;;;;;;;;5014978;28;20185;-75
2021/11/25 03:10:28;;;;;;;45.63;27.30;;;;;;;;;;5014158;28;20190;-75
2021/11/25 03:12:53;;;;;;;43.90;29.23;;;;;;;;;;5015294;28;20201;-75
2021/11/25 03:15:19;;;;;;;48.67;28.97;;;;;;;;;;5016560;28;20187;-76
2021/11/25 03:17:44;;;;;;;51.67;29.90;;;;;;;;;;5018199;28;20186;-79
2021/11/25 03:20:11;;;;;;;51.47;28.87;;;;;;;;;;5015621;28;20319;-78
2021/11/25 03:22:36;;;;;;;51.73;29.07;;;;;;;;;;5015354;28;20321;-76
2021/11/25 03:25:02;;;;;;;50.20;29.00;;;;;;;;;;5014078;28;20263;-77
2021/11/25 03:27:27;;;;;;;48.70;28.87;;;;;;;;;;5019863;28;20239;-77
2021/11/25 03:29:52;;;;;;;47.60;27.27;;;;;;;;;;5014222;28;20179;-78
2021/11/25 03:32:18;;;;;;;46.80;29.93;;;;;;;;;;5013886;28;20829;-75
2021/11/25 03:34:43;;;;;;;48.00;29.07;;;;;;;;;;5016349;28;20185;-75
2021/11/25 03:37:08;;;;;;;49.80;27.47;;;;;;;;;;5018635;28;20730;-78
2021/11/25 03:39:33;;;;;;;51.37;30.40;;;;;;;;;;5016526;28;20182;-78
2021/11/25 03:41:58;;;;;;;50.63;29.10;;;;;;;;;;5018821;28;20243;-79
2021/11/25 03:44:24;;;;;;;49.53;28.23;;;;;;;;;;5017469;28;21230;-78
2021/11/25 03:46:49;;;;;;;48.43;28.50;;;;;;;;;;5015635;28;20190;-76
2021/11/25 03:49:14;;;;;;;52.40;29.67;;;;;;;;;;5017628;28;20604;-79
2021/11/25 03:51:39;;;;;;;49.80;28.80;;;;;;;;;;5014353;28;20399;-78
2021/11/25 03:54:05;;;;;;;49.10;29.10;;;;;;;;;;5017103;28;20202;-77
2021/11/25 03:56:30;;;;;;;51.77;29.33;;;;;;;;;;5016279;28;20197;-75
2021/11/25 03:58:55;;;;;;;54.37;30.87;;;;;;;;;;5020481;28;20551;-74
2021/11/25 04:01:23;;;;;;;52.67;28.87;;;;;;;;;;5021140;28;20750;-78
2021/11/25 04:03:48;;;;;;;48.47;28.70;;;;;;;;;;5019928;28;20228;-75
2021/11/25 04:06:13;;;;;;;50.33;28.80;;;;;;;;;;5017287;28;20304;-77
2021/11/25 04:08:38;;;;;;;47.50;28.00;;;;;;;;;;5016897;28;20193;-79
2021/11/25 04:11:04;;;;;;;45.30;28.53;;;;;;;;;;5020506;28;20170;-75
2021/11/25 04:13:29;;;;;;;47.93;27.80;;;;;;;;;;5015236;28;20634;-77
2021/11/25 04:15:54;;;;;;;47.70;27.10;;;;;;;;;;5023408;28;20269;-76
2021/11/25 04:18:19;;;;;;;49.57;27.57;;;;;;;;;;5015127;28;20183;-76
2021/11/25 04:20:45;;;;;;;47.07;29.27;;;;;;;;;;5017817;28;20702;-75
2021/11/25 04:23:11;;;;;;;45.87;27.93;;;;;;;;;;5015579;28;20606;-77
2021/11/25 04:25:37;;;;;;;47.87;27.40;;;;;;;;;;5015382;28;20182;-77
2021/11/25 04:28:02;;;;;;;45.60;28.00;;;;;;;;;;5015735;28;20189;-76
2021/11/25 04:30:48;;;;;;;44.93;27.17;;;;;;;;;;5030317;28;20177;-77
2021/11/25 04:35:57;;;;;;;45.50;27.53;;;;;;;;;;5018973;28;20698;-78
2021/11/25 04:38:23;;;;;;;43.67;28.20;;;;;;;;;;5017665;28;20181;-78
2021/11/25 04:40:50;;;;;;;49.93;28.57;;;;;;;;;;5016294;28;20494;-77
2021/11/25 04:43:16;;;;;;;48.83;28.63;;;;;;;;;;5013323;28;20202;-78
2021/11/25 04:45:42;;;;;;;47.90;28.17;;;;;;;;;;5016120;28;20182;-77
2021/11/25 04:48:08;;;;;;;47.97;28.47;;;;;;;;;;5021464;28;20624;-77
2021/11/25 04:50:33;;;;;;;46.17;28.23;;;;;;;;;;5015763;28;20240;-77
2021/11/25 04:52:59;;;;;;;45.53;26.73;;;;;;;;;;5014279;28;20228;-77
2021/11/25 04:55:24;;;;;;;46.27;28.60;;;;;;;;;;5015679;28;20240;-79
2021/11/25 04:57:49;;;;;;;45.57;27.93;;;;;;;;;;5020303;28;20213;-76
2021/11/25 05:00:15;;;;;;;45.97;28.03;;;;;;;;;;5019316;28;20772;-78
2021/11/25 05:02:41;;;;;;;47.97;28.40;;;;;;;;;;5013613;28;20466;-76
2021/11/25 05:05:06;;;;;;;45.47;28.67;;;;;;;;;;5015791;28;20670;-75
2021/11/25 05:07:32;;;;;;;48.23;29.03;;;;;;;;;;5016101;28;20644;-76
2021/11/25 05:09:57;;;;;;;44.23;30.03;;;;;;;;;;5014521;28;20805;-78
2021/11/25 05:12:22;;;;;;;45.57;28.57;;;;;;;;;;5013900;28;20190;-76
2021/11/25 05:14:47;;;;;;;50.80;30.77;;;;;;;;;;5015862;28;20657;-76
2021/11/25 05:17:12;;;;;;;51.23;29.67;;;;;;;;;;5018794;28;20194;-76
2021/11/25 05:19:38;;;;;;;50.93;29.67;;;;;;;;;;5016040;28;20808;-78
2021/11/25 05:22:03;;;;;;;49.90;30.90;;;;;;;;;;5013765;28;20309;-76
2021/11/25 05:24:28;;;;;;;47.50;28.83;;;;;;;;;;5017816;28;20348;-77
2021/11/25 05:26:54;;;;;;;49.53;30.20;;;;;;;;;;5015799;28;20174;-76
2021/11/25 05:29:21;;;;;;;45.23;28.03;;;;;;;;;;5016365;28;20270;-77
2021/11/25 05:31:46;;;;;;;48.83;30.47;;;;;;;;;;5014062;28;20182;-78
2021/11/25 05:34:11;;;;;;;51.23;30.70;;;;;;;;;;5015591;28;20205;-77
2021/11/25 05:36:37;;;;;;;47.30;28.77;;;;;;;;;;5017070;28;20607;-79
2021/11/25 05:39:02;;;;;;;52.67;30.43;;;;;;;;;;5016261;28;20186;-76
2021/11/25 05:41:28;;;;;;;46.27;30.20;;;;;;;;;;5012716;28;20221;-76
2021/11/25 05:43:53;;;;;;;46.17;29.43;;;;;;;;;;5014884;28;20204;-75
2021/11/25 05:46:18;;;;;;;52.30;29.70;;;;;;;;;;5013946;28;20206;-77
2021/11/25 05:48:43;;;;;;;50.50;28.20;;;;;;;;;;5031861;28;20177;-75
2021/11/25 05:51:09;;;;;;;52.23;29.17;;;;;;;;;;5038634;28;20620;-75
2021/11/25 05:53:34;;;;;;;46.13;29.27;;;;;;;;;;5029255;28;20696;-75
2021/11/25 05:55:59;;;;;;;47.93;29.77;;;;;;;;;;5031281;28;20265;-76
2021/11/25 05:58:24;;;;;;;49.57;29.07;;;;;;;;;;5029549;28;20186;-75
2021/11/25 06:00:49;;;;;;;46.90;27.73;;;;;;;;;;5030974;28;20178;-75
2021/11/25 06:03:14;;;;;;;46.70;28.97;;;;;;;;;;5023432;28;20303;-76
2021/11/25 06:05:40;;;;;;;48.90;29.90;;;;;;;;;;5014362;28;20237;-76
2021/11/25 06:08:05;;;;;;;46.50;29.90;;;;;;;;;;5015877;28;20205;-76
2021/11/25 06:10:30;;;;;;;47.10;28.17;;;;;;;;;;5013826;28;20182;-78
2021/11/25 06:12:56;;;;;;;49.57;29.97;;;;;;;;;;5015989;28;20217;-78
2021/11/25 06:15:22;;;;;;;50.73;30.83;;;;;;;;;;5020182;28;20194;-75
2021/11/25 06:17:47;;;;;;;45.30;28.63;;;;;;;;;;5016125;28;20390;-79
2021/11/25 06:20:14;;;;;;;47.00;29.00;;;;;;;;;;5026630;28;20224;-75
2021/11/25 06:22:41;;;;;;;51.50;30.07;;;;;;;;;;5014635;28;20688;-76
2021/11/25 06:25:07;;;;;;;50.77;31.40;;;;;;;;;;5017260;28;20194;-78
2021/11/25 06:27:32;;;;;;;54.87;30.50;;;;;;;;;;5015590;28;20248;-75
2021/11/25 06:29:57;;;;;;;52.10;30.23;;;;;;;;;;5021357;28;20182;-78
2021/11/25 06:32:22;;;;;;;60.73;32.20;;;;;;;;;;5020130;28;20194;-76
2021/11/25 06:34:48;;;;;;;54.37;30.60;;;;;;;;;;5014860;28;20987;-76
2021/11/25 06:37:13;;;;;;;57.40;32.73;;;;;;;;;;5016686;28;20273;-78
2021/11/25 06:39:38;;;;;;;49.90;30.80;;;;;;;;;;5016274;28;20610;-75
2021/11/25 06:42:03;;;;;;;58.53;33.90;;;;;;;;;;5032291;28;20206;-75
2021/11/25 06:44:29;;;;;;;50.73;31.40;;;;;;;;;;5022461;28;20202;-77
2021/11/25 06:46:54;;;;;;;52.63;30.13;;;;;;;;;;5015349;28;20178;-77
2021/11/25 06:49:19;;;;;;;48.80;30.77;;;;;;;;;;5014499;28;20709;-76
2021/11/25 06:51:44;;;;;;;52.37;31.40;;;;;;;;;;5025195;28;20659;-79
2021/11/25 06:54:09;;;;;;;54.77;28.70;;;;;;;;;;5013197;28;20208;-78
2021/11/25 06:56:35;;;;;;;54.37;31.23;;;;;;;;;;5012568;28;21862;-77
2021/11/25 06:59:00;;;;;;;59.10;32.33;;;;;;;;;;5013220;28;20225;-76
2021/11/25 07:01:25;;;;;;;52.77;31.20;;;;;;;;;;5011089;28;20240;-77
2021/11/25 07:03:51;;;;;;;56.63;31.30;;;;;;;;;;5016921;28;20866;-75
2021/11/25 07:06:16;;;;;;;52.87;30.67;;;;;;;;;;5012730;28;20170;-76
2021/11/25 07:08:41;;;;;;;55.40;31.87;;;;;;;;;;5013889;28;20611;-78
2021/11/25 07:11:06;;;;;;;54.10;32.63;;;;;;;;;;5016783;28;20178;-78
2021/11/25 07:13:32;;;;;;;54.20;31.03;;;;;;;;;;5019770;28;20212;-78
2021/11/25 07:15:57;;;;;;;57.30;32.07;;;;;;;;;;5020425;28;21056;-75
2021/11/25 07:18:22;;;;;;;61.73;32.17;;;;;;;;;;5018314;28;20186;-76
2021/11/25 07:20:47;;;;;;;62.00;31.93;;;;;;;;;;5015965;28;20281;-77
2021/11/25 07:23:12;;;;;;;55.00;31.93;;;;;;;;;;5016864;28;20863;-75
2021/11/25 07:25:38;;;;;;;59.90;31.77;;;;;;;;;;5017697;28;20190;-80
2021/11/25 07:28:03;;;;;;;55.97;31.73;;;;;;;;;;5020109;28;20175;-76
2021/11/25 07:30:28;;;;;;;56.73;30.83;;;;;;;;;;5016871;28;20301;-78
2021/11/25 07:32:54;;;;;;;59.70;33.43;;;;;;;;;;5031370;28;20288;-75
2021/11/25 07:35:20;;;;;;;56.60;32.37;;;;;;;;;;5018641;28;20185;-78
2021/11/25 07:37:46;;;;;;;61.87;32.37;;;;;;;;;;5020898;28;20550;-75
2021/11/25 07:40:11;;;;;;;54.67;33.57;;;;;;;;;;5017124;28;20791;-75
2021/11/25 07:42:36;;;;;;;52.70;31.57;;;;;;;;;;5026687;28;20206;-74
2021/11/25 07:45:02;;;;;;;59.20;32.60;;;;;;;;;;5036109;28;20193;-75
2021/11/25 07:47:32;;;;;;;62.10;33.57;;;;;;;;;;5032646;28;20429;-74
2021/11/25 07:49:59;;;;;;;55.47;31.73;;;;;;;;;;5031906;28;20248;-74
2021/11/25 07:52:24;;;;;;;59.30;33.63;;;;;;;;;;5035019;28;20181;-76
2021/11/25 07:54:49;;;;;;;55.07;31.67;;;;;;;;;;5029228;28;20429;-75
2021/11/25 07:57:14;;;;;;;57.27;32.83;;;;;;;;;;5039108;28;20719;-78
2021/11/25 07:59:40;;;;;;;55.07;31.03;;;;;;;;;;5036702;28;20238;-75
2021/11/25 08:02:05;;;;;;;58.97;32.97;;;;;;;;;;5032168;28;20210;-76
2021/11/25 08:04:30;;;;;;;60.37;31.93;;;;;;;;;;5034706;28;20193;-75
2021/11/25 08:06:55;;;;;;;64.03;33.27;;;;;;;;;;5031196;28;20227;-76
2021/11/25 08:09:20;;;;;;;57.07;32.00;;;;;;;;;;5038319;28;20194;-75
2021/11/25 08:11:46;;;;;;;54.77;31.20;;;;;;;;;;5033038;28;20182;-76
2021/11/25 08:14:11;;;;;;;64.13;35.30;;;;;;;;;;5026853;28;20221;-75
2021/11/25 08:16:38;;;;;;;60.47;32.00;;;;;;;;;;5035624;28;20189;-76
2021/11/25 08:19:03;;;;;;;58.90;31.83;;;;;;;;;;5029550;28;20178;-75
2021/11/25 08:21:28;;;;;;;61.83;33.60;;;;;;;;;;5033441;28;20185;-76
2021/11/25 08:23:54;;;;;;;56.33;32.37;;;;;;;;;;5031943;28;20565;-75
2021/11/25 08:26:19;;;;;;;52.83;29.93;;;;;;;;;;5035043;28;20289;-76
2021/11/25 08:28:44;;;;;;;56.43;32.33;;;;;;;;;;5038385;28;20194;-76
2021/11/25 08:31:10;;;;;;;58.77;32.30;;;;;;;;;;5040308;28;20273;-76
2021/11/25 08:33:35;;;;;;;60.97;32.23;;;;;;;;;;5038182;28;20671;-77
2021/11/25 08:36:00;;;;;;;56.57;32.10;;;;;;;;;;5037400;28;20656;-77
2021/11/25 08:38:28;;;;;;;58.43;31.90;;;;;;;;;;5039579;28;20182;-78
2021/11/25 08:40:54;;;;;;;58.37;32.67;;;;;;;;;;5033359;28;20178;-78
2021/11/25 08:43:19;;;;;;;59.13;31.87;;;;;;;;;;5036174;28;20216;-75
2021/11/25 08:45:44;;;;;;;60.97;30.37;;;;;;;;;;5031285;28;20769;-76
2021/11/25 08:48:09;;;;;;;58.43;30.57;;;;;;;;;;5023568;28;20194;-77
2021/11/25 08:50:34;;;;;;;62.37;31.17;;;;;;;;;;5019977;28;20270;-78
2021/11/25 08:53:00;;;;;;;57.17;30.77;;;;;;;;;;5016626;28;20561;-76
2021/11/25 08:55:27;;;;;;;57.33;30.67;;;;;;;;;;5015306;28;20243;-77
2021/11/25 08:57:52;;;;;;;58.50;30.63;;;;;;;;;;5016506;28;20276;-76
2021/11/25 09:00:17;;;;;;;56.53;30.60;;;;;;;;;;5020792;28;20190;-78
2021/11/25 09:02:43;;;;;;;55.07;30.87;;;;;;;;;;5024277;28;20780;-78
2021/11/25 09:05:09;;;;;;;56.60;29.27;;;;;;;;;;5017854;28;20182;-78
2021/11/25 09:07:34;;;;;;;53.20;29.83;;;;;;;;;;5016010;28;20179;-77
2021/11/25 09:09:59;;;;;;;57.53;31.30;;;;;;;;;;5019325;28;20189;-77
2021/11/25 09:12:25;;;;;;;52.93;29.50;;;;;;;;;;5018503;28;20303;-78
2021/11/25 09:14:50;;;;;;;54.83;29.83;;;;;;;;;;5020420;28;20193;-78
2021/11/25 09:17:15;;;;;;;55.40;29.33;;;;;;;;;;5020214;28;21307;-77
2021/11/25 09:19:40;;;;;;;54.70;30.93;;;;;;;;;;5017663;28;20255;-79
2021/11/25 09:22:05;;;;;;;62.07;31.03;;;;;;;;;;5017041;28;20218;-78
2021/11/25 09:24:31;;;;;;;53.93;28.47;;;;;;;;;;5015574;28;20197;-78
2021/11/25 09:26:56;;;;;;;52.50;28.70;;;;;;;;;;5017385;28;20174;-77
2021/11/25 09:29:21;;;;;;;50.40;28.10;;;;;;;;;;5016377;28;20956;-79
2021/11/25 09:31:47;;;;;;;52.27;26.60;;;;;;;;;;5015906;28;20204;-76
2021/11/25 09:34:12;;;;;;;48.43;27.03;;;;;;;;;;5030791;28;20572;-79
2021/11/25 09:36:40;;;;;;;48.70;26.20;;;;;;;;;;5018879;28;20178;-78
2021/11/25 09:39:06;;;;;;;45.30;25.97;;;;;;;;;;5014445;28;20178;-78
2021/11/25 09:41:31;;;;;;;43.03;25.43;;;;;;;;;;5018120;28;20551;-77
2021/11/25 09:43:57;;;;;;;40.27;24.70;;;;;;;;;;5030618;28;20242;-77
2021/11/25 09:46:22;;;;;;;47.40;26.50;;;;;;;;;;5018251;28;20178;-78
2021/11/25 09:48:48;;;;;;;40.53;24.80;;;;;;;;;;5031783;28;20276;-77
2021/11/25 09:51:13;;;;;;;44.40;24.43;;;;;;;;;;5012422;28;20217;-77
2021/11/25 09:53:38;;;;;;;40.93;23.77;;;;;;;;;;5018190;28;21123;-78
2021/11/25 09:56:05;;;;;;;40.80;22.70;;;;;;;;;;5016582;28;20187;-78
2021/11/25 09:58:31;;;;;;;42.67;24.17;;;;;;;;;;5017806;28;20235;-79
2021/11/25 10:01:01;;;;;;;39.80;21.73;;;;;;;;;;5013754;28;20265;-78
2021/11/25 10:03:26;;;;;;;36.93;22.50;;;;;;;;;;5017024;28;20220;-78
2021/11/25 10:05:53;;;;;;;38.93;23.37;;;;;;;;;;5013631;28;20187;-78
2021/11/25 10:08:29;;;;;;;41.70;22.20;;;;;;;;;;5019333;28;20178;-77
2021/11/25 10:10:57;;;;;;;40.53;22.87;;;;;;;;;;5014893;28;20181;-78
2021/11/25 10:13:26;;;;;;;36.93;21.50;;;;;;;;;;5015641;28;20322;-78
2021/11/25 10:15:56;;;;;;;42.30;22.73;;;;;;;;;;5020862;28;20178;-77
2021/11/25 10:18:21;;;;;;;36.00;22.60;;;;;;;;;;5014337;28;20201;-78
2021/11/25 10:20:48;;;;;;;35.33;21.10;;;;;;;;;;5020690;28;20183;-77
2021/11/25 10:23:19;;;;;;;33.30;20.80;;;;;;;;;;5017440;28;20293;-77
2021/11/25 10:25:48;;;;;;;30.93;19.40;;;;;;;;;;5017376;28;20182;-79
2021/11/25 10:28:28;;;;;;;32.10;20.13;;;;;;;;;;5013360;28;20184;-77
2021/11/25 10:30:55;;;;;;;29.67;18.93;;;;;;;;;;5015291;28;20599;-78
2021/11/25 10:33:22;;;;;;;30.13;19.00;;;;;;;;;;5030137;28;20206;-77
2021/11/25 10:36:03;;;;;;;30.70;19.13;;;;;;;;;;5015755;28;20265;-77
2021/11/25 10:38:38;;;;;;;31.77;18.87;;;;;;;;;;5017114;28;20257;-77
2021/11/25 10:41:17;;;;;;;25.60;17.00;;;;;;;;;;5014348;28;20238;-79
2021/11/25 10:43:43;;;;;;;28.90;17.00;;;;;;;;;;5018907;28;20556;-77
2021/11/25 10:46:09;;;;;;;26.50;16.03;;;;;;;;;;5020211;28;20207;-80
2021/11/25 10:48:38;;;;;;;31.27;16.07;;;;;;;;;;5019839;28;20182;-78
2021/11/25 10:51:22;;;;;;;24.13;15.30;;;;;;;;;;5016849;28;20535;-76
2021/11/25 10:54:08;;;;;;;27.33;15.17;;;;;;;;;;5012694;28;20204;-78
2021/11/25 10:56:37;;;;;;;23.30;14.10;;;;;;;;;;5015824;28;20329;-80
2021/11/25 10:59:02;;;;;;;19.07;13.07;;;;;;;;;;5016672;28;20177;-78
2021/11/25 11:01:31;;;;;;;17.63;11.77;;;;;;;;;;5013627;28;20255;-77
2021/11/25 11:04:00;;;;;;;21.30;12.23;;;;;;;;;;5013484;28;21494;-77
2021/11/25 11:06:29;;;;;;;15.70;10.50;;;;;;;;;;5014692;28;20182;-77
2021/11/25 11:08:54;;;;;;;16.33;9.50;;;;;;;;;;5015550;28;22141;-77
2021/11/25 11:11:20;;;;;;;11.47;8.20;;;;;;;;;;5014081;28;20189;-77
2021/11/25 11:14:11;;;;;;;12.23;7.53;;;;;;;;;;5015274;28;20212;-76
2021/11/25 11:16:43;;;;;;;13.57;6.00;;;;;;;;;;5017928;28;20655;-79
2021/11/25 11:19:12;;;;;;;11.80;6.70;;;;;;;;;;5011712;28;20584;-79
2021/11/25 11:21:42;;;;;;;10.53;5.83;;;;;;;;;;5014044;28;20178;-79
2021/11/25 11:24:18;;;;;;;12.17;5.43;;;;;;;;;;5014578;28;21351;-75
2021/11/25 11:27:02;;;;;;;12.57;6.07;;;;;;;;;;5015464;28;21968;-77
2021/11/25 11:29:28;;;;;;;8.13;5.13;;;;;;;;;;5013965;28;20218;-78
2021/11/25 11:31:56;;;;;;;14.13;4.63;;;;;;;;;;5018789;28;20186;-77
2021/11/25 11:34:21;;;;;;;9.43;4.20;;;;;;;;;;5030041;28;20201;-78
2021/11/25 11:36:47;;;;;;;10.67;4.27;;;;;;;;;;5033902;28;20265;-77
2021/11/25 11:39:14;;;;;;;8.40;3.30;;;;;;;;;;5029946;28;20189;-78
2021/11/25 11:41:44;;;;;;;9.57;3.53;;;;;;;;;;5033905;28;20221;-77
2021/11/25 11:44:10;;;;;;;6.23;3.00;;;;;;;;;;5030900;28;20617;-77
2021/11/25 11:46:35;;;;;;;9.00;3.30;;;;;;;;;;5032955;28;20714;-77
2021/11/25 11:49:01;;;;;;;7.83;2.90;;;;;;;;;;5026144;28;20179;-77
2021/11/25 11:51:26;;;;;;;9.90;2.87;;;;;;;;;;5038804;28;20186;-77
2021/11/25 11:53:55;;;;;;;5.33;2.40;;;;;;;;;;5026281;28;20197;-77
2021/11/25 11:56:32;;;;;;;7.20;2.67;;;;;;;;;;5030191;28;20651;-77
2021/11/25 11:58:59;;;;;;;8.13;1.87;;;;;;;;;;5057796;28;20185;-77
2021/11/25 12:01:26;;;;;;;7.80;1.70;;;;;;;;;;5031864;28;20556;-77
2021/11/25 12:03:51;;;;;;;11.37;2.10;;;;;;;;;;5037164;28;20213;-78
2021/11/25 12:06:35;;;;;;;10.23;1.77;;;;;;;;;;5030348;28;20193;-77
2021/11/25 12:09:01;;;;;;;8.03;1.97;;;;;;;;;;5043074;28;20189;-78
2021/11/25 12:11:40;;;;;;;7.90;1.60;;;;;;;;;;5032356;28;20177;-77
2021/11/25 12:14:06;;;;;;;6.23;1.40;;;;;;;;;;5033316;28;20213;-77
2021/11/25 12:16:33;;;;;;;6.60;1.13;;;;;;;;;;5032317;28;20235;-77
2021/11/25 12:18:59;;;;;;;6.07;1.33;;;;;;;;;;5029892;28;20178;-77
2021/11/25 12:21:31;;;;;;;9.43;1.53;;;;;;;;;;5031543;28;20815;-75
2021/11/25 12:24:14;;;;;;;6.27;2.23;;;;;;;;;;5031735;28;20244;-75
2021/11/25 12:26:55;;;;;;;10.17;1.57;;;;;;;;;;5026227;28;20186;-76
2021/11/25 12:29:39;;;;;;;11.47;2.70;;;;;;;;;;5033883;28;20665;-75
2021/11/25 12:32:27;;;;;;;5.47;1.20;;;;;;;;;;5032717;28;20178;-76
2021/11/25 12:34:53;;;;;;;7.57;1.67;;;;;;;;;;5028056;28;20834;-76
2021/11/25 12:37:45;;;;;;;4.17;1.00;;;;;;;;;;5030805;28;20182;-77
2021/11/25 12:40:16;;;;;;;5.30;1.77;;;;;;;;;;5020624;28;20220;-78
2021/11/25 12:42:45;;;;;;;4.37;1.47;;;;;;;;;;5016970;28;20210;-79
2021/11/25 12:45:22;;;;;;;9.87;1.50;;;;;;;;;;5017250;28;20273;-78
2021/11/25 12:47:47;;;;;;;7.83;1.70;;;;;;;;;;5016046;28;20248;-78
2021/11/25 12:50:19;;;;;;;4.53;1.37;;;;;;;;;;5022159;28;20183;-79
2021/11/25 12:52:45;;;;;;;6.43;1.60;;;;;;;;;;5017259;28;20271;-80
2021/11/25 12:55:11;;;;;;;9.27;1.90;;;;;;;;;;5019393;28;20196;-79
2021/11/25 12:57:49;;;;;;;8.07;1.30;;;;;;;;;;5018715;28;20190;-77
2021/11/25 13:00:18;;;;;;;5.50;1.50;;;;;;;;;;5028739;28;20201;-77
2021/11/25 13:02:43;;;;;;;9.03;1.70;;;;;;;;;;5019432;28;20293;-78
2021/11/25 13:05:09;;;;;;;5.17;1.33;;;;;;;;;;5018634;28;20267;-79
2021/11/25 13:07:44;;;;;;;7.83;1.50;;;;;;;;;;5016120;28;20183;-75
2021/11/25 13:10:20;;;;;;;10.03;2.77;;;;;;;;;;5017518;28;20193;-76
2021/11/25 13:12:46;;;;;;;6.00;1.50;;;;;;;;;;5016829;28;20227;-79
2021/11/25 13:15:12;;;;;;;4.27;1.60;;;;;;;;;;5025229;28;20178;-76
2021/11/25 13:17:37;;;;;;;8.90;1.90;;;;;;;;;;5018418;28;20624;-77
2021/11/25 13:20:02;;;;;;;6.43;2.20;;;;;;;;;;5021252;28;20183;-76
2021/11/25 13:22:27;;;;;;;9.60;2.03;;;;;;;;;;5026385;28;20661;-79
2021/11/25 13:24:53;;;;;;;6.63;1.40;;;;;;;;;;5020845;28;20244;-76
2021/11/25 13:27:21;;;;;;;4.67;1.10;;;;;;;;;;5017082;28;20171;-77
2021/11/25 13:29:51;;;;;;;4.97;1.47;;;;;;;;;;5016333;28;20652;-76
2021/11/25 13:32:21;;;;;;;9.70;2.40;;;;;;;;;;5018296;28;20174;-77
2021/11/25 13:34:48;;;;;;;5.23;1.00;;;;;;;;;;5021106;28;20548;-76
2021/11/25 13:37:16;;;;;;;6.33;1.60;;;;;;;;;;5019213;28;20574;-77
2021/11/25 13:39:45;;;;;;;4.40;1.50;;;;;;;;;;5016845;28;20329;-77
2021/11/25 13:42:12;;;;;;;5.70;1.30;;;;;;;;;;5014410;28;20229;-78
2021/11/25 13:44:40;;;;;;;4.70;1.40;;;;;;;;;;5019209;28;20192;-80
2021/11/25 13:47:08;;;;;;;5.70;1.80;;;;;;;;;;5017787;28;20210;-77
2021/11/25 13:49:43;;;;;;;7.17;1.23;;;;;;;;;;5017328;28;20182;-77
2021/11/25 13:52:10;;;;;;;5.83;1.10;;;;;;;;;;5013305;28;20260;-78
2021/11/25 13:54:35;;;;;;;5.40;1.40;;;;;;;;;;5016509;28;20206;-78
2021/11/25 13:57:03;;;;;;;6.10;1.23;;;;;;;;;;5016413;28;20603;-77
2021/11/25 13:59:28;;;;;;;8.13;1.97;;;;;;;;;;5019053;28;20200;-78
2021/11/25 14:01:54;;;;;;;4.80;1.13;;;;;;;;;;5018542;28;20691;-78
2021/11/25 14:04:24;;;;;;;8.53;1.43;;;;;;;;;;5021637;28;20193;-77
2021/11/25 14:06:51;;;;;;;4.50;1.27;;;;;;;;;;5018297;28;20216;-75
2021/11/25 14:09:17;;;;;;;3.37;1.30;;;;;;;;;;5013350;28;21996;-80
2021/11/25 14:11:56;;;;;;;3.57;0.77;;;;;;;;;;5015225;28;20178;-80
2021/11/25 14:14:28;;;;;;;4.13;0.80;;;;;;;;;;5018593;28;20210;-77
2021/11/25 14:16:54;;;;;;;4.13;1.00;;;;;;;;;;5016500;28;20272;-77
2021/11/25 14:19:20;;;;;;;8.23;1.40;;;;;;;;;;5016072;28;20186;-80
2021/11/25 14:21:50;;;;;;;2.77;0.50;;;;;;;;;;5015772;28;20222;-79